createdAt,value
2023-10-28T00:00:48.668Z,69.36
2023-10-28T00:01:50.272Z,69.24
2023-10-28T00:02:51.983Z,69.39
2023-10-28T00:03:53.692Z,68.39
2023-10-28T00:04:55.329Z,68.52
2023-10-28T00:05:56.908Z,68.07
2023-10-28T00:06:58.505Z,68.46
2023-10-28T00:08:00.365Z,68.29
2023-10-28T00:09:02.009Z,68.65
2023-10-28T00:10:04.258Z,68.34
2023-10-28T00:11:07.658Z,68.31
2023-10-28T00:12:14.017Z,68.27
2023-10-28T00:13:15.622Z,68.70
2023-10-28T00:14:18.782Z,68.75
2023-10-28T00:15:20.358Z,69.07
2023-10-28T00:16:22.007Z,68.85
2023-10-28T00:17:25.280Z,68.86
2023-10-28T00:18:26.967Z,69.08
2023-10-28T00:19:30.340Z,69.40
2023-10-28T00:20:32.292Z,69.50
2023-10-28T00:21:33.968Z,70.26
2023-10-28T00:22:35.644Z,70.88
2023-10-28T00:23:37.439Z,71.15
2023-10-28T00:24:39.008Z,71.17
2023-10-28T00:25:40.910Z,71.08
2023-10-28T00:26:42.520Z,71.06
2023-10-28T00:27:44.553Z,71.21
2023-10-28T00:28:46.454Z,71.70
2023-10-28T00:29:53.314Z,71.37
2023-10-28T00:30:55.107Z,71.86
2023-10-28T00:31:56.734Z,71.70
2023-10-28T00:33:01.166Z,71.91
2023-10-28T00:34:02.860Z,71.55
2023-10-28T00:35:08.658Z,71.85
2023-10-28T00:36:12.331Z,71.61
2023-10-28T00:37:14.139Z,71.81
2023-10-28T00:38:15.735Z,71.80
2023-10-28T00:39:17.798Z,71.55
2023-10-28T00:40:19.769Z,71.54
2023-10-28T00:41:21.651Z,71.79
2023-10-28T00:42:23.366Z,72.44
2023-10-28T00:43:25.386Z,72.56
2023-10-28T00:44:26.955Z,72.99
2023-10-28T00:45:28.909Z,73.37
2023-10-28T00:46:30.758Z,73.42
2023-10-28T00:47:34.854Z,73.30
2023-10-28T00:48:36.567Z,73.00
2023-10-28T00:49:38.183Z,72.28
2023-10-28T00:50:40.081Z,72.07
2023-10-28T00:51:42.351Z,71.95
2023-10-28T00:52:51.993Z,71.98
2023-10-28T00:53:53.865Z,72.17
2023-10-28T00:54:57.764Z,71.97
2023-10-28T00:56:00.705Z,72.32
2023-10-28T00:57:03.122Z,72.71
2023-10-28T00:58:04.948Z,72.99
2023-10-28T00:59:07.813Z,73.65
2023-10-28T01:00:11.807Z,72.86
2023-10-28T01:01:15.218Z,72.94
2023-10-28T01:02:18.953Z,72.28
2023-10-28T01:03:20.725Z,72.09
2023-10-28T01:04:22.469Z,72.59
2023-10-28T01:05:24.147Z,72.31
2023-10-28T01:06:25.766Z,72.37
2023-10-28T01:07:28.214Z,72.44
2023-10-28T01:08:29.778Z,73.01
2023-10-28T01:09:31.441Z,72.88
2023-10-28T01:10:34.752Z,73.21
2023-10-28T01:11:42.570Z,73.54
2023-10-28T01:12:44.171Z,73.60
2023-10-28T01:13:45.846Z,73.72
2023-10-28T01:14:47.482Z,73.71
2023-10-28T01:15:49.114Z,74.19
2023-10-28T01:16:50.766Z,74.10
2023-10-28T01:17:52.434Z,74.02
2023-10-28T01:18:56.576Z,73.69
2023-10-28T01:19:59.168Z,73.10
2023-10-28T01:21:09.662Z,73.05
2023-10-28T01:22:11.247Z,72.89
2023-10-28T01:23:13.002Z,72.89
2023-10-28T01:24:14.573Z,73.40
2023-10-28T01:25:16.219Z,73.46
2023-10-28T01:26:18.059Z,73.79
2023-10-28T01:27:20.408Z,73.80
2023-10-28T01:28:22.146Z,73.83
2023-10-28T01:29:25.963Z,74.37
2023-10-28T01:30:28.167Z,74.53
2023-10-28T01:31:29.956Z,74.58
2023-10-28T01:32:31.815Z,74.45
2023-10-28T01:33:33.453Z,73.84
2023-10-28T01:34:48.452Z,73.96
2023-10-28T01:35:50.162Z,74.17
2023-10-28T01:36:51.983Z,73.81
2023-10-28T01:37:53.677Z,73.90
2023-10-28T01:38:55.353Z,74.23
2023-10-28T01:39:57.890Z,74.45
2023-10-28T01:40:59.510Z,74.01
2023-10-28T01:42:01.126Z,73.85
2023-10-28T01:43:03.115Z,73.10
2023-10-28T01:44:05.139Z,73.17
2023-10-28T01:45:08.452Z,73.06
2023-10-28T01:46:10.007Z,72.76
2023-10-28T01:47:11.684Z,72.04
2023-10-28T01:48:14.897Z,71.80
2023-10-28T01:49:16.538Z,71.27
2023-10-28T01:50:21.646Z,71.09
2023-10-28T01:51:23.441Z,71.16
2023-10-28T01:52:25.484Z,71.24
2023-10-28T01:53:31.646Z,71.70
2023-10-28T01:54:34.429Z,71.92
2023-10-28T01:55:36.073Z,71.36
2023-10-28T01:56:38.054Z,71.13
2023-10-28T01:57:40.429Z,71.20
2023-10-28T01:58:42.005Z,70.38
2023-10-28T01:59:45.041Z,69.81
2023-10-28T02:00:46.933Z,70.21
2023-10-28T02:01:48.495Z,70.17
2023-10-28T02:02:51.857Z,70.29
2023-10-28T02:03:54.431Z,70.39
2023-10-28T02:04:56.161Z,70.63
2023-10-28T02:05:57.726Z,70.64
2023-10-28T02:07:00.023Z,71.35
2023-10-28T02:08:01.642Z,71.29
2023-10-28T02:09:04.190Z,71.44
2023-10-28T02:10:06.487Z,71.94
2023-10-28T02:11:08.637Z,72.21
2023-10-28T02:12:10.269Z,72.69
2023-10-28T02:13:14.002Z,72.70
2023-10-28T02:14:15.950Z,72.86
2023-10-28T02:15:17.897Z,72.92
2023-10-28T02:16:19.950Z,72.74
2023-10-28T02:17:21.519Z,72.73
2023-10-28T02:18:24.098Z,72.60
2023-10-28T02:19:25.956Z,72.58
2023-10-28T02:20:29.508Z,71.97
2023-10-28T02:21:31.113Z,72.13
2023-10-28T02:22:33.105Z,72.90
2023-10-28T02:23:34.732Z,72.69
2023-10-28T02:24:36.341Z,72.97
2023-10-28T02:25:37.902Z,73.38
2023-10-28T02:26:39.564Z,73.26
2023-10-28T02:27:41.174Z,73.75
2023-10-28T02:28:42.771Z,73.92
2023-10-28T02:29:44.537Z,73.71
2023-10-28T02:30:46.297Z,74.11
2023-10-28T02:31:48.195Z,74.69
2023-10-28T02:32:49.875Z,75.26
2023-10-28T02:33:51.599Z,75.00
2023-10-28T02:34:53.322Z,75.14
2023-10-28T02:35:54.879Z,75.45
2023-10-28T02:36:56.519Z,75.36
2023-10-28T02:37:58.194Z,75.14
2023-10-28T02:39:01.261Z,75.00
2023-10-28T02:40:03.741Z,74.77
2023-10-28T02:41:08.801Z,75.01
2023-10-28T02:42:10.521Z,74.45
2023-10-28T02:43:12.118Z,74.53
2023-10-28T02:44:13.755Z,74.26
2023-10-28T02:45:15.674Z,74.42
2023-10-28T02:46:24.592Z,74.49
2023-10-28T02:47:26.810Z,73.90
2023-10-28T02:48:29.375Z,73.87
2023-10-28T02:49:31.536Z,73.95
2023-10-28T02:50:36.459Z,73.98
2023-10-28T02:51:38.401Z,73.92
2023-10-28T02:52:39.970Z,73.86
2023-10-28T02:53:41.606Z,73.90
2023-10-28T02:54:43.186Z,73.27
2023-10-28T02:55:44.828Z,73.42
2023-10-28T02:56:46.367Z,73.20
2023-10-28T02:57:47.993Z,73.17
2023-10-28T02:58:50.225Z,72.89
2023-10-28T02:59:51.785Z,72.75
2023-10-28T03:00:56.336Z,72.94
2023-10-28T03:01:58.747Z,72.72
2023-10-28T03:03:00.533Z,72.10
2023-10-28T03:04:02.150Z,72.16
2023-10-28T03:05:06.233Z,72.40
2023-10-28T03:06:08.199Z,72.38
2023-10-28T03:07:09.843Z,72.42
2023-10-28T03:08:11.532Z,72.15
2023-10-28T03:09:13.559Z,72.60
2023-10-28T03:10:15.262Z,72.56
2023-10-28T03:11:16.869Z,72.81
2023-10-28T03:12:18.899Z,72.58
2023-10-28T03:13:20.472Z,72.80
2023-10-28T03:14:22.080Z,72.21
2023-10-28T03:15:25.864Z,72.13
2023-10-28T03:16:27.703Z,72.32
2023-10-28T03:17:29.462Z,72.45
2023-10-28T03:18:31.172Z,72.70
2023-10-28T03:19:32.775Z,72.55
2023-10-28T03:20:34.466Z,72.60
2023-10-28T03:21:36.080Z,73.15
2023-10-28T03:22:37.958Z,73.29
2023-10-28T03:23:39.586Z,72.87
2023-10-28T03:24:41.162Z,72.83
2023-10-28T03:25:42.841Z,73.01
2023-10-28T03:26:44.408Z,72.84
2023-10-28T03:27:47.182Z,72.74
2023-10-28T03:28:50.684Z,72.40
2023-10-28T03:29:53.419Z,72.65
2023-10-28T03:30:55.045Z,72.68
2023-10-28T03:31:56.615Z,72.93
2023-10-28T03:32:58.672Z,72.77
2023-10-28T03:34:00.765Z,72.38
2023-10-28T03:35:02.560Z,71.99
2023-10-28T03:36:06.043Z,71.97
2023-10-28T03:37:07.735Z,72.32
2023-10-28T03:38:10.571Z,72.18
2023-10-28T03:39:12.699Z,72.54
2023-10-28T03:40:14.716Z,72.89
2023-10-28T03:41:16.467Z,72.87
2023-10-28T03:42:18.095Z,72.86
2023-10-28T03:43:19.732Z,72.26
2023-10-28T03:44:21.669Z,72.41
2023-10-28T03:45:23.384Z,71.74
2023-10-28T03:46:26.438Z,72.17
2023-10-28T03:47:30.467Z,72.53
2023-10-28T03:48:32.499Z,72.47
2023-10-28T03:49:34.454Z,72.41
2023-10-28T03:50:36.633Z,72.75
2023-10-28T03:51:39.784Z,72.56
2023-10-28T03:52:41.489Z,72.68
2023-10-28T03:53:43.197Z,72.23
2023-10-28T03:54:44.782Z,71.85
2023-10-28T03:55:46.376Z,72.44
2023-10-28T03:56:48.836Z,72.23
2023-10-28T03:57:50.420Z,72.42
2023-10-28T03:58:52.543Z,72.68
2023-10-28T03:59:54.306Z,72.42
2023-10-28T04:00:56.038Z,72.69
2023-10-28T04:01:57.807Z,72.60
2023-10-28T04:02:59.409Z,72.76
2023-10-28T04:04:00.958Z,72.14
2023-10-28T04:05:02.619Z,71.60
2023-10-28T04:06:07.454Z,71.63
2023-10-28T04:07:09.420Z,71.28
2023-10-28T04:08:11.083Z,70.75
2023-10-28T04:09:15.252Z,71.00
2023-10-28T04:10:16.863Z,70.57
2023-10-28T04:11:18.489Z,70.83
2023-10-28T04:12:20.084Z,71.72
2023-10-28T04:13:21.848Z,71.90
2023-10-28T04:14:24.252Z,72.03
2023-10-28T04:15:26.452Z,71.96
2023-10-28T04:16:28.152Z,72.44
2023-10-28T04:17:32.887Z,71.46
2023-10-28T04:18:34.669Z,71.39
2023-10-28T04:19:36.263Z,72.16
2023-10-28T04:20:39.071Z,72.27
2023-10-28T04:21:40.818Z,72.20
2023-10-28T04:22:42.404Z,72.30
2023-10-28T04:23:44.489Z,72.35
2023-10-28T04:24:46.223Z,72.71
2023-10-28T04:25:47.873Z,72.89
2023-10-28T04:26:49.536Z,73.37
2023-10-28T04:27:51.907Z,73.65
2023-10-28T04:28:53.575Z,73.80
2023-10-28T04:29:55.587Z,73.62
2023-10-28T04:30:58.159Z,73.96
2023-10-28T04:31:59.813Z,73.93
2023-10-28T04:33:01.608Z,74.20
2023-10-28T04:34:04.526Z,74.43
2023-10-28T04:35:15.652Z,74.47
2023-10-28T04:36:28.317Z,74.02
2023-10-28T04:37:29.955Z,74.30
2023-10-28T04:38:31.572Z,74.63
2023-10-28T04:39:33.163Z,74.96
2023-10-28T04:40:37.174Z,75.69
2023-10-28T04:41:38.750Z,76.02
2023-10-28T04:42:40.366Z,76.12
2023-10-28T04:43:41.972Z,76.24
2023-10-28T04:44:44.738Z,76.62
2023-10-28T04:45:46.719Z,77.16
2023-10-28T04:46:48.336Z,77.04
2023-10-28T04:47:50.411Z,77.55
2023-10-28T04:48:52.005Z,77.30
2023-10-28T04:49:53.654Z,77.69
2023-10-28T04:50:55.688Z,78.50
2023-10-28T04:51:57.471Z,78.78
2023-10-28T04:52:59.076Z,79.48
2023-10-28T04:54:00.667Z,79.54
2023-10-28T04:55:02.282Z,80.31
2023-10-28T04:56:04.125Z,80.60
2023-10-28T04:57:05.793Z,80.11
2023-10-28T04:58:07.530Z,80.13
2023-10-28T04:59:11.271Z,79.87
2023-10-28T05:00:14.746Z,79.66
2023-10-28T05:01:16.432Z,79.56
2023-10-28T05:02:18.051Z,79.40
2023-10-28T05:03:21.276Z,79.42
2023-10-28T05:04:26.579Z,79.43
2023-10-28T05:05:28.186Z,79.58
2023-10-28T05:06:30.104Z,79.60
2023-10-28T05:07:31.744Z,79.79
2023-10-28T05:08:33.521Z,79.97
2023-10-28T05:09:37.278Z,79.84
2023-10-28T05:10:38.885Z,80.21
2023-10-28T05:11:40.459Z,80.52
2023-10-28T05:12:42.170Z,80.61
2023-10-28T05:13:44.069Z,81.05
2023-10-28T05:14:48.496Z,80.69
2023-10-28T05:15:50.115Z,80.99
2023-10-28T05:16:53.944Z,81.13
2023-10-28T05:17:55.651Z,80.62
2023-10-28T05:18:57.591Z,80.92
2023-10-28T05:19:59.254Z,80.73
2023-10-28T05:21:00.919Z,80.32
2023-10-28T05:22:04.905Z,80.04
2023-10-28T05:23:06.495Z,79.66
2023-10-28T05:24:08.574Z,79.42
2023-10-28T05:25:10.655Z,79.10
2023-10-28T05:26:12.314Z,79.43
2023-10-28T05:27:14.038Z,79.46
2023-10-28T05:28:15.803Z,78.96
2023-10-28T05:29:17.718Z,78.15
2023-10-28T05:30:19.504Z,78.52
2023-10-28T05:31:22.390Z,78.39
2023-10-28T05:32:24.178Z,78.46
2023-10-28T05:33:25.982Z,78.69
2023-10-28T05:34:27.557Z,78.81
2023-10-28T05:35:29.168Z,79.60
2023-10-28T05:36:30.788Z,79.36
2023-10-28T05:37:32.400Z,79.31
2023-10-28T05:38:34.038Z,78.80
2023-10-28T05:39:35.656Z,78.37
2023-10-28T05:40:37.294Z,76.98
2023-10-28T05:41:38.926Z,78.02
2023-10-28T05:42:41.793Z,78.19
2023-10-28T05:43:43.428Z,77.63
2023-10-28T05:44:45.130Z,77.85
2023-10-28T05:45:46.802Z,77.79
2023-10-28T05:46:48.561Z,77.62
2023-10-28T05:47:50.236Z,77.04
2023-10-28T05:48:52.140Z,77.62
2023-10-28T05:49:54.219Z,78.22
2023-10-28T05:50:59.166Z,78.32
2023-10-28T05:52:01.216Z,77.41
2023-10-28T05:53:02.854Z,77.54
2023-10-28T05:54:05.369Z,77.60
2023-10-28T05:55:08.469Z,77.05
2023-10-28T05:56:10.123Z,76.28
2023-10-28T05:57:11.715Z,75.81
2023-10-28T05:58:13.342Z,75.65
2023-10-28T05:59:16.056Z,75.24
2023-10-28T06:00:18.039Z,75.59
2023-10-28T06:01:19.655Z,75.74
2023-10-28T06:02:21.451Z,74.56
2023-10-28T06:03:23.226Z,73.01
2023-10-28T06:04:24.906Z,72.01
2023-10-28T06:05:26.806Z,71.77
2023-10-28T06:06:32.132Z,71.42
2023-10-28T06:07:34.298Z,71.80
2023-10-28T06:08:35.921Z,70.97
2023-10-28T06:09:37.555Z,71.17
2023-10-28T06:10:39.167Z,70.88
2023-10-28T06:11:41.289Z,70.55
2023-10-28T06:12:43.089Z,70.29
2023-10-28T06:13:44.699Z,69.49
2023-10-28T06:14:46.420Z,68.82
2023-10-28T06:15:48.117Z,69.24
2023-10-28T06:16:50.700Z,68.77
2023-10-28T06:17:52.402Z,68.50
2023-10-28T06:18:56.673Z,68.47
2023-10-28T06:19:58.290Z,68.59
2023-10-28T06:20:59.849Z,68.08
2023-10-28T06:22:01.990Z,68.04
2023-10-28T06:23:07.522Z,67.65
2023-10-28T06:24:09.470Z,66.68
2023-10-28T06:25:11.124Z,65.93
2023-10-28T06:26:12.726Z,65.94
2023-10-28T06:27:14.274Z,65.92
2023-10-28T06:28:15.895Z,65.55
2023-10-28T06:29:17.529Z,65.89
2023-10-28T06:30:19.238Z,65.87
2023-10-28T06:31:21.736Z,65.61
2023-10-28T06:32:23.427Z,64.59
2023-10-28T06:33:25.532Z,63.31
2023-10-28T06:34:30.190Z,63.27
2023-10-28T06:35:31.839Z,63.55
2023-10-28T06:36:34.631Z,62.90
2023-10-28T06:37:40.878Z,62.81
2023-10-28T06:38:42.545Z,62.82
2023-10-28T06:39:48.876Z,63.16
2023-10-28T06:40:51.756Z,63.09
2023-10-28T06:41:53.386Z,63.33
2023-10-28T06:42:54.989Z,62.97
2023-10-28T06:43:59.029Z,63.05
2023-10-28T06:45:00.649Z,63.92
2023-10-28T06:46:02.267Z,63.51
2023-10-28T06:47:04.616Z,63.54
2023-10-28T06:48:06.342Z,64.47
2023-10-28T06:49:09.583Z,64.77
2023-10-28T06:50:11.227Z,64.16
2023-10-28T06:51:14.030Z,64.01
2023-10-28T06:52:15.594Z,63.99
2023-10-28T06:53:17.265Z,62.39
2023-10-28T06:54:19.906Z,64.22
2023-10-28T06:55:21.670Z,62.90
2023-10-28T06:56:23.344Z,63.41
2023-10-28T06:57:24.952Z,63.81
2023-10-28T06:58:26.776Z,63.53
2023-10-28T06:59:28.339Z,63.14
2023-10-28T07:00:30.066Z,59.24
2023-10-28T07:01:31.788Z,61.34
2023-10-28T07:02:33.818Z,58.03
2023-10-28T07:03:35.642Z,57.08
2023-10-28T07:04:37.302Z,55.85
2023-10-28T07:05:39.942Z,55.19
2023-10-28T07:06:42.573Z,53.47
2023-10-28T07:07:46.117Z,53.54
2023-10-28T07:08:47.820Z,52.19
2023-10-28T07:09:49.888Z,50.40
2023-10-28T07:10:51.674Z,49.61
2023-10-28T07:11:54.316Z,48.20
2023-10-28T07:12:56.006Z,48.31
2023-10-28T07:13:57.623Z,46.81
2023-10-28T07:15:01.040Z,46.56
2023-10-28T07:16:06.341Z,45.54
2023-10-28T07:17:08.004Z,44.11
2023-10-28T07:18:09.981Z,43.81
2023-10-28T07:19:13.419Z,43.82
2023-10-28T07:20:16.858Z,42.64
2023-10-28T07:21:18.603Z,42.78
2023-10-28T07:22:24.196Z,41.51
2023-10-28T07:23:29.095Z,40.59
2023-10-28T07:24:30.692Z,40.57
2023-10-28T07:25:32.248Z,40.22
2023-10-28T07:26:34.161Z,39.13
2023-10-28T07:27:35.766Z,38.45
2023-10-28T07:28:38.819Z,37.41
2023-10-28T07:29:40.465Z,36.87
2023-10-28T07:30:46.366Z,36.38
2023-10-28T07:31:49.086Z,36.19
2023-10-28T07:32:51.938Z,35.99
2023-10-28T07:33:53.625Z,35.91
2023-10-28T07:34:55.233Z,35.40
2023-10-28T07:35:56.903Z,34.67
2023-10-28T07:37:04.732Z,35.57
2023-10-28T07:38:06.314Z,34.13
2023-10-28T07:39:07.970Z,33.99
2023-10-28T07:40:12.466Z,34.04
2023-10-28T07:41:14.139Z,33.23
2023-10-28T07:42:17.008Z,33.43
2023-10-28T07:43:19.039Z,33.63
2023-10-28T07:44:20.741Z,33.46
2023-10-28T07:45:22.322Z,33.93
2023-10-28T07:46:27.477Z,33.56
2023-10-28T07:47:29.133Z,32.58
2023-10-28T07:48:31.528Z,33.15
2023-10-28T07:49:33.873Z,33.79
2023-10-28T07:50:36.182Z,33.65
2023-10-28T07:51:37.834Z,33.67
2023-10-28T07:52:39.428Z,32.67
2023-10-28T07:53:41.055Z,32.39
2023-10-28T07:54:42.707Z,32.81
2023-10-28T07:55:44.259Z,31.65
2023-10-28T07:56:45.896Z,31.33
2023-10-28T07:57:47.497Z,32.37
2023-10-28T07:58:51.992Z,30.84
2023-10-28T07:59:54.389Z,29.85
2023-10-28T08:00:56.002Z,29.67
2023-10-28T08:01:59.438Z,28.92
2023-10-28T08:03:02.018Z,29.95
2023-10-28T08:04:07.801Z,28.16
2023-10-28T08:05:11.275Z,28.17
2023-10-28T08:06:20.353Z,27.96
2023-10-28T08:07:26.061Z,27.38
2023-10-28T08:08:31.241Z,29.12
2023-10-28T08:09:32.889Z,28.30
2023-10-28T08:10:34.512Z,27.78
2023-10-28T08:11:36.636Z,28.96
2023-10-28T08:12:39.760Z,27.74
2023-10-28T08:13:41.688Z,28.01
2023-10-28T08:14:48.080Z,26.97
2023-10-28T08:15:53.893Z,27.79
2023-10-28T08:16:57.636Z,26.49
2023-10-28T08:17:59.736Z,27.14
2023-10-28T08:19:02.344Z,26.39
2023-10-28T08:20:07.201Z,25.92
2023-10-28T08:21:09.003Z,25.30
2023-10-28T08:22:13.384Z,25.76
2023-10-28T08:23:15.023Z,24.68
2023-10-28T08:24:17.776Z,25.24
2023-10-28T08:25:19.522Z,23.84
2023-10-28T08:26:21.138Z,24.12
2023-10-28T08:27:22.853Z,23.71
2023-10-28T08:28:24.487Z,24.86
2023-10-28T08:29:26.259Z,24.89
2023-10-28T08:30:29.414Z,24.88
2023-10-28T08:31:31.036Z,24.79
2023-10-28T08:32:33.522Z,24.03
2023-10-28T08:33:38.848Z,23.85
2023-10-28T08:34:40.415Z,24.05
2023-10-28T08:35:42.055Z,24.29
2023-10-28T08:36:43.818Z,25.07
2023-10-28T08:37:45.366Z,25.83
2023-10-28T08:38:49.082Z,25.79
2023-10-28T08:39:51.045Z,25.44
2023-10-28T08:40:52.644Z,25.93
2023-10-28T08:41:55.430Z,27.61
2023-10-28T08:42:59.664Z,26.39
2023-10-28T08:44:05.675Z,26.04
2023-10-28T08:45:10.222Z,25.99
2023-10-28T08:46:13.715Z,25.67
2023-10-28T08:47:18.450Z,25.00
2023-10-28T08:48:22.162Z,24.30
2023-10-28T08:49:24.473Z,24.46
2023-10-28T08:50:26.660Z,24.41
2023-10-28T08:51:28.369Z,25.52
2023-10-28T08:52:33.766Z,25.46
2023-10-28T08:53:37.690Z,24.89
2023-10-28T08:54:41.009Z,25.24
2023-10-28T08:55:45.741Z,25.54
2023-10-28T08:56:48.374Z,24.03
2023-10-28T08:57:50.113Z,25.94
2023-10-28T08:58:53.595Z,25.51
2023-10-28T08:59:55.389Z,24.58
2023-10-28T09:01:00.794Z,25.10
2023-10-28T09:02:09.153Z,24.53
2023-10-28T09:03:12.824Z,23.72
2023-10-28T09:04:16.337Z,24.02
2023-10-28T09:05:18.173Z,23.05
2023-10-28T09:06:20.900Z,23.74
2023-10-28T09:07:22.490Z,24.34
2023-10-28T09:08:24.935Z,24.40
2023-10-28T09:09:29.054Z,23.43
2023-10-28T09:10:31.280Z,24.79
2023-10-28T09:11:33.437Z,25.44
2023-10-28T09:12:35.628Z,24.83
2023-10-28T09:13:38.147Z,25.03
2023-10-28T09:14:40.133Z,24.89
2023-10-28T09:15:41.896Z,24.22
2023-10-28T09:16:43.555Z,24.50
2023-10-28T09:17:45.285Z,24.16
2023-10-28T09:18:46.883Z,24.34
2023-10-28T09:19:48.615Z,24.65
2023-10-28T09:20:50.397Z,24.82
2023-10-28T09:21:53.180Z,24.95
2023-10-28T09:22:54.801Z,23.87
2023-10-28T09:24:01.606Z,23.79
2023-10-28T09:25:04.474Z,24.72
2023-10-28T09:26:06.864Z,26.21
2023-10-28T09:27:11.434Z,24.96
2023-10-28T09:28:17.201Z,24.14
2023-10-28T09:29:26.710Z,23.64
2023-10-28T09:30:29.716Z,24.49
2023-10-28T09:31:31.699Z,24.40
2023-10-28T09:32:37.054Z,24.55
2023-10-28T09:33:39.418Z,24.60
2023-10-28T09:34:42.695Z,24.98
2023-10-28T09:35:46.662Z,24.27
2023-10-28T09:36:51.463Z,24.81
2023-10-28T09:37:55.040Z,25.44
2023-10-28T09:38:57.188Z,25.43
2023-10-28T09:39:59.865Z,24.77
2023-10-28T09:41:03.173Z,25.29
2023-10-28T09:42:05.591Z,24.37
2023-10-28T09:43:08.389Z,25.16
2023-10-28T09:44:11.422Z,25.40
2023-10-28T09:45:13.027Z,27.01
2023-10-28T09:46:21.381Z,25.84
2023-10-28T09:47:23.873Z,25.55
2023-10-28T09:48:32.989Z,25.39
2023-10-28T09:49:40.701Z,25.14
2023-10-28T09:50:50.407Z,26.48
2023-10-28T09:51:57.583Z,25.96
2023-10-28T09:52:59.533Z,25.40
2023-10-28T09:54:06.658Z,24.84
2023-10-28T09:55:12.386Z,26.93
2023-10-28T09:56:14.520Z,26.57
2023-10-28T09:57:17.873Z,26.71
2023-10-28T09:58:21.427Z,26.75
2023-10-28T09:59:27.363Z,26.12
2023-10-28T10:00:32.012Z,26.25
2023-10-28T10:02:02.909Z,26.91
2023-10-28T10:03:29.946Z,26.19
2023-10-28T10:04:45.643Z,27.04
2023-10-28T10:05:48.491Z,26.12
2023-10-28T10:06:50.299Z,25.36
2023-10-28T10:07:53.773Z,25.26
2023-10-28T10:08:56.487Z,26.55
2023-10-28T10:10:11.288Z,25.74
2023-10-28T10:11:13.010Z,26.79
2023-10-28T10:12:14.839Z,25.53
2023-10-28T10:13:16.880Z,25.60
2023-10-28T10:14:21.151Z,25.25
2023-10-28T10:15:23.860Z,24.85
2023-10-28T10:16:43.257Z,25.50
2023-10-28T10:18:12.030Z,25.20
2023-10-28T10:19:21.832Z,24.10
2023-10-28T10:20:27.324Z,23.94
2023-10-28T10:21:33.878Z,24.51
2023-10-28T10:22:36.635Z,24.70
2023-10-28T10:23:45.590Z,24.67
2023-10-28T10:24:50.901Z,26.93
2023-10-28T10:25:55.781Z,24.73
2023-10-28T10:26:59.550Z,25.31
2023-10-28T10:28:27.396Z,25.12
2023-10-28T10:29:41.502Z,25.13
2023-10-28T10:30:46.405Z,25.44
2023-10-28T10:31:58.703Z,26.06
2023-10-28T10:33:05.055Z,25.66
2023-10-28T10:34:08.764Z,24.72
2023-10-28T10:35:33.099Z,26.05
2023-10-28T10:36:47.985Z,26.25
2023-10-28T10:38:10.535Z,25.82
2023-10-28T10:39:16.081Z,26.53
2023-10-28T10:40:22.505Z,26.85
2023-10-28T10:41:29.348Z,26.47
2023-10-28T10:42:31.330Z,27.28
2023-10-28T10:43:33.606Z,27.98
2023-10-28T10:44:40.417Z,28.58
2023-10-28T10:45:42.555Z,28.67
2023-10-28T10:46:44.518Z,29.53
2023-10-28T10:47:47.767Z,29.04
2023-10-28T10:48:49.861Z,28.73
2023-10-28T10:49:51.543Z,30.38
2023-10-28T10:50:53.363Z,29.23
2023-10-28T10:51:55.054Z,30.22
2023-10-28T10:52:57.843Z,29.27
2023-10-28T10:53:59.430Z,29.00
2023-10-28T10:55:01.967Z,29.19
2023-10-28T10:56:03.768Z,28.37
2023-10-28T10:57:07.487Z,29.17
2023-10-28T10:58:09.121Z,28.85
2023-10-28T10:59:10.969Z,29.53
2023-10-28T11:00:13.817Z,30.86
2023-10-28T11:01:16.563Z,30.04
2023-10-28T11:02:18.940Z,29.29
2023-10-28T11:03:22.972Z,30.02
2023-10-28T11:04:32.142Z,30.78
2023-10-28T11:05:33.839Z,30.70
2023-10-28T11:06:36.667Z,30.45
2023-10-28T11:07:38.241Z,31.26
2023-10-28T11:08:40.968Z,30.96
2023-10-28T11:09:43.353Z,31.49
2023-10-28T11:10:47.238Z,32.37
2023-10-28T11:11:49.216Z,32.18
2023-10-28T11:12:51.576Z,32.90
2023-10-28T11:13:53.545Z,32.37
2023-10-28T11:14:56.116Z,33.09
2023-10-28T11:15:58.552Z,33.18
2023-10-28T11:17:01.219Z,33.52
2023-10-28T11:18:03.205Z,33.28
2023-10-28T11:19:06.119Z,33.48
2023-10-28T11:20:11.091Z,34.88
2023-10-28T11:21:15.687Z,33.91
2023-10-28T11:22:18.486Z,35.37
2023-10-28T11:23:21.150Z,35.22
2023-10-28T11:24:23.858Z,36.02
2023-10-28T11:25:33.106Z,35.12
2023-10-28T11:26:36.260Z,35.85
2023-10-28T11:27:39.406Z,35.30
2023-10-28T11:28:40.987Z,35.24
2023-10-28T11:29:42.750Z,35.18
2023-10-28T11:30:52.177Z,34.54
2023-10-28T11:31:54.242Z,35.15
2023-10-28T11:32:56.053Z,36.36
2023-10-28T11:34:03.075Z,35.28
2023-10-28T11:35:04.995Z,35.35
2023-10-28T11:36:07.297Z,35.33
2023-10-28T11:37:10.255Z,35.52
2023-10-28T11:38:12.049Z,36.50
2023-10-28T11:39:16.954Z,35.41
2023-10-28T11:40:22.305Z,35.93
2023-10-28T11:41:26.239Z,34.74
2023-10-28T11:42:28.644Z,35.07
2023-10-28T11:43:30.237Z,35.38
2023-10-28T11:44:32.015Z,35.45
2023-10-28T11:45:33.730Z,36.10
2023-10-28T11:46:35.392Z,35.64
2023-10-28T11:47:37.100Z,35.70
2023-10-28T11:48:39.298Z,36.26
2023-10-28T11:49:40.907Z,35.39
2023-10-28T11:50:44.498Z,35.17
2023-10-28T11:51:46.343Z,35.30
2023-10-28T11:52:50.606Z,35.37
2023-10-28T11:53:52.834Z,35.64
2023-10-28T11:54:54.898Z,36.13
2023-10-28T11:55:56.857Z,36.72
2023-10-28T11:56:58.433Z,37.22
2023-10-28T11:58:00.051Z,36.63
2023-10-28T11:59:02.851Z,37.19
2023-10-28T12:00:08.243Z,37.47
2023-10-28T12:01:09.958Z,36.51
2023-10-28T12:02:11.634Z,36.31
2023-10-28T12:03:14.294Z,37.36
2023-10-28T12:04:16.345Z,36.75
2023-10-28T12:05:17.991Z,36.16
2023-10-28T12:06:29.482Z,36.37
2023-10-28T12:07:32.144Z,36.83
2023-10-28T12:08:34.297Z,36.50
2023-10-28T12:09:38.702Z,37.29
2023-10-28T12:10:44.539Z,37.55
2023-10-28T12:11:47.415Z,37.79
2023-10-28T12:12:49.065Z,37.31
2023-10-28T12:13:50.639Z,37.01
2023-10-28T12:14:52.231Z,36.37
2023-10-28T12:15:53.875Z,37.14
2023-10-28T12:16:55.460Z,37.21
2023-10-28T12:17:57.087Z,36.76
2023-10-28T12:18:58.833Z,36.68
2023-10-28T12:20:00.413Z,37.97
2023-10-28T12:21:02.111Z,36.97
2023-10-28T12:22:03.907Z,36.64
2023-10-28T12:23:05.602Z,36.26
2023-10-28T12:24:07.848Z,36.76
2023-10-28T12:25:14.883Z,36.44
2023-10-28T12:26:18.911Z,37.17
2023-10-28T12:27:21.341Z,36.89
2023-10-28T12:28:23.913Z,37.18
2023-10-28T12:29:26.282Z,36.93
2023-10-28T12:30:28.434Z,36.98
2023-10-28T12:31:30.033Z,36.70
2023-10-28T12:32:31.759Z,37.09
2023-10-28T12:33:35.501Z,37.41
2023-10-28T12:34:38.900Z,37.58
2023-10-28T12:35:40.950Z,37.28
2023-10-28T12:36:43.925Z,37.65
2023-10-28T12:37:45.728Z,37.28
2023-10-28T12:38:47.770Z,37.16
2023-10-28T12:39:49.383Z,37.18
2023-10-28T12:40:50.954Z,37.25
2023-10-28T12:41:52.653Z,37.58
2023-10-28T12:42:54.383Z,37.26
2023-10-28T12:43:55.974Z,36.62
2023-10-28T12:44:57.761Z,36.53
2023-10-28T12:45:59.438Z,36.79
2023-10-28T12:47:01.076Z,37.00
2023-10-28T12:48:03.301Z,36.81
2023-10-28T12:49:04.933Z,38.01
2023-10-28T12:50:07.002Z,37.08
2023-10-28T12:51:09.855Z,37.09
2023-10-28T12:52:11.467Z,37.74
2023-10-28T12:53:14.619Z,37.91
2023-10-28T12:54:16.242Z,37.89
2023-10-28T12:55:18.317Z,37.74
2023-10-28T12:56:19.913Z,38.36
2023-10-28T12:57:22.564Z,38.58
2023-10-28T12:58:24.765Z,38.20
2023-10-28T12:59:29.012Z,37.72
2023-10-28T13:00:30.698Z,38.77
2023-10-28T13:01:33.109Z,38.42
2023-10-28T13:02:34.932Z,37.40
2023-10-28T13:03:37.032Z,37.00
2023-10-28T13:04:41.502Z,37.46
2023-10-28T13:05:43.386Z,37.68
2023-10-28T13:06:46.190Z,37.73
2023-10-28T13:07:47.787Z,37.71
2023-10-28T13:08:49.462Z,37.51
2023-10-28T13:09:51.159Z,37.54
2023-10-28T13:10:54.946Z,37.84
2023-10-28T13:12:00.349Z,37.71
2023-10-28T13:13:02.209Z,37.50
2023-10-28T13:14:04.206Z,38.35
2023-10-28T13:15:06.607Z,38.27
2023-10-28T13:16:09.445Z,37.71
2023-10-28T13:17:11.737Z,37.98
2023-10-28T13:18:13.761Z,37.94
2023-10-28T13:19:15.458Z,37.67
2023-10-28T13:20:18.124Z,38.82
2023-10-28T13:21:19.762Z,39.82
2023-10-28T13:22:22.704Z,40.80
2023-10-28T13:23:24.395Z,39.92
2023-10-28T13:24:26.121Z,42.15
2023-10-28T13:25:27.810Z,41.94
2023-10-28T13:26:30.733Z,37.68
2023-10-28T13:27:32.635Z,38.08
2023-10-28T13:28:34.232Z,37.64
2023-10-28T13:29:35.856Z,37.93
2023-10-28T13:30:41.396Z,38.12